Aérodrome :
LOGIN :

S'inscrire | Disclaimer

   EN    FR    IT 

 










Légende :    VFR   VFR Marginal   IFR   IFR Intensif   IFR Très Intensif
Visi : 
Plafond : 
>= 8 km
>= 3000ft
5 à 8 km
1000 à 3000 ft
1500m à 5 km
500 à 1000 ft
800 à 1500m
200 à 500 ft
< 800m
< 200 ft
Symboles :   Orages  Brouillard  Fortes neiges  Fortes précipitations  Vent > 20 kt
SIGMETs :   Divers  Orages  Givrage  Turbulence  Onde Orograph.  Cendres Volcan.






- Altitude de l'aérodrome : 2595 ft
- Code IATA : SLM


LESA - Salamanca Matacan

DERNIER METAR :
  • 050230Z AUTO 28011KT 9999 OVC010 00/M01 Q1000

METARs EXPIRÉS :
  • 050200Z AUTO 26008KT 240V300 9999 OVC010 00/M02 Q0999
  • 050130Z AUTO 28008KT 9999 OVC012 01/M02 Q0999
  • 050100Z AUTO 28008KT 250V320 9999 OVC013 01/M02 Q0999
  • 050030Z AUTO 28010KT 240V310 9999 OVC014 01/M02 Q0999
  • 050000Z AUTO 29009KT 9999 OVC014 01/M01 Q0999

TAF TAF LESA
Valide du 05 à 03h jusqu'au 06 à 03h UTC


050200Z 0503/0603 28012KT 9999 SCT025 TX04/0514Z TNM03/0506Z
PROB30
TEMPO 0503/0516 FEW025TCU
PROB40
TEMPO 0503/0517 BKN008
BECMG 0518/0520 SCT004



MET'MAP, la Météo Aéronautique d'un coup d'oeil ! - Copyright ORBIFLY Décembre 2007 - Disclaimer

ORBIFLY MET'MAP TEAM :

Programmation & Développement : Alexandra Zaïnal
Sur une idée originale de : Baudouin d'Aumeries
Assistance à la programmation : Marc-Olivier Méhu
Soutien technique & logistique : Manuel Goepfert

Contact : metmap@orbifly.com




SOURCES & CREDITS :

   NOAA